This is the latest recevied weather packets stored in our database for station/object KD5KNZ-13. If no packets are shown the sender has not sent any weather packets the latest 10 day(s).
| Time | Temp. | Humidity | Pressure | Rain* | Wind** | Luminosity | Snow |
|---|---|---|---|---|---|---|---|
| 1777626045 | 17.22° C | 96% | 1010.9 hPa | 0 mm | - | - | - |
| 1777620644 | 17.22° C | 95% | 1011.8 hPa | 0 mm | - | - | - |
| 1777612546 | 18.33° C | 96% | 1012.4 hPa | 0 mm | - | - | - |
| 1777608041 | 19.44° C | 96% | 1012.3 hPa | 0 mm | - | - | - |
| 1777606248 | 19.44° C | 96% | 1012.3 hPa | 0 mm | - | - | - |
| 1777599045 | 20.56° C | 96% | 1010.5 hPa | 2.29 mm | - | - | - |
| 1777596339 | 21.11° C | 96% | 1010 hPa | 2.79 mm | - | - | - |
| 1777595438 | 21.11° C | 95% | 1010.5 hPa | 2.79 mm | - | - | - |
| 1777594544 | 21.67° C | 96% | 1011.7 hPa | 2.79 mm | - | - | - |
| 1777593648 | 21.67° C | 95% | 1011.7 hPa | 3.05 mm | - | - | - |
| 1777590052 | 21.67° C | 95% | 1010.6 hPa | 3.05 mm | - | - | - |
| 1777586441 | 21.67° C | 94% | 1010.1 hPa | 1.78 mm | - | - | - |
| 1777585547 | 22.22° C | 93% | 1009.9 hPa | 0.76 mm | - | - | - |
| 1777581942 | 23.33° C | 90% | 1010.3 hPa | 0 mm | - | - | - |
| 1777575649 | 23.33° C | 90% | 1010.8 hPa | 0 mm | - | - | - |
| 1777567545 | 21.11° C | 95% | 1011.8 hPa | 1.02 mm | - | - | - |
| 1777564840 | 20.56° C | 94% | 1012.7 hPa | 0 mm | - | - | - |
| 1777547747 | 20° C | 96% | 1010.8 hPa | 0 mm | - | - | - |
| 1777542345 | 20° C | 96% | 1009.8 hPa | 0 mm | - | - | - |
| 1777539641 | 20° C | 96% | 1009 hPa | 0.25 mm | - | - | - |
| 1777538768 | 19.44° C | 96% | 1008.4 hPa | 0.51 mm | - | - | - |
| 1777536945 | 19.44° C | 96% | 1010.8 hPa | 1.52 mm | - | - | - |
| 1777536040 | 19.44° C | 96% | 1011.7 hPa | 2.03 mm | - | - | - |
| 1777533339 | 19.44° C | 95% | 1012.2 hPa | 1.78 mm | - | - | - |
| 1777532438 | 19.44° C | 95% | 1012.9 hPa | 1.27 mm | - | - | - |
* Rain latest hour (hover to see other rain measurements)
** Current wind speed in m/s (hover to see current wind gust speed)